sensor_id;sensor_type;location;lat;lon;timestamp;P1;durP1;ratioP1;P2;durP2;ratioP2
30896;SDS011;64229;52.246;21.054;2023-07-13T00:00:18;12.00;;;6.30;;
30896;SDS011;64229;52.246;21.054;2023-07-13T00:02:44;9.55;;;6.00;;
30896;SDS011;64229;52.246;21.054;2023-07-13T00:05:09;11.17;;;6.43;;
30896;SDS011;64229;52.246;21.054;2023-07-13T00:07:35;10.38;;;6.03;;
30896;SDS011;64229;52.246;21.054;2023-07-13T00:10:01;10.85;;;6.32;;
30896;SDS011;64229;52.246;21.054;2023-07-13T00:12:29;13.50;;;6.47;;
30896;SDS011;64229;52.246;21.054;2023-07-13T00:15:00;12.68;;;7.10;;
30896;SDS011;64229;52.246;21.054;2023-07-13T00:17:27;11.15;;;6.60;;
30896;SDS011;64229;52.246;21.054;2023-07-13T00:19:54;9.90;;;6.20;;
30896;SDS011;64229;52.246;21.054;2023-07-13T00:22:21;12.95;;;6.40;;
30896;SDS011;64229;52.246;21.054;2023-07-13T00:24:47;9.27;;;6.30;;
30896;SDS011;64229;52.246;21.054;2023-07-13T00:27:12;11.40;;;6.63;;
30896;SDS011;64229;52.246;21.054;2023-07-13T00:29:39;9.30;;;5.57;;
30896;SDS011;64229;52.246;21.054;2023-07-13T00:32:04;11.43;;;6.85;;
30896;SDS011;64229;52.246;21.054;2023-07-13T00:34:31;8.73;;;6.03;;
30896;SDS011;64229;52.246;21.054;2023-07-13T00:36:57;9.23;;;5.43;;
30896;SDS011;64229;52.246;21.054;2023-07-13T00:39:22;11.52;;;6.43;;
30896;SDS011;64229;52.246;21.054;2023-07-13T00:41:48;9.32;;;6.15;;
30896;SDS011;64229;52.246;21.054;2023-07-13T00:44:14;8.20;;;5.68;;
30896;SDS011;64229;52.246;21.054;2023-07-13T00:46:40;9.40;;;5.85;;
30896;SDS011;64229;52.246;21.054;2023-07-13T00:49:07;11.13;;;6.15;;
30896;SDS011;64229;52.246;21.054;2023-07-13T00:51:48;9.73;;;5.72;;
30896;SDS011;64229;52.246;21.054;2023-07-13T00:54:24;12.38;;;6.10;;
30896;SDS011;64229;52.246;21.054;2023-07-13T00:56:55;9.88;;;6.95;;
30896;SDS011;64229;52.246;21.054;2023-07-13T00:59:24;10.13;;;5.82;;
30896;SDS011;64229;52.246;21.054;2023-07-13T01:01:50;12.57;;;7.10;;
30896;SDS011;64229;52.246;21.054;2023-07-13T01:04:16;10.52;;;6.40;;
30896;SDS011;64229;52.246;21.054;2023-07-13T01:06:42;9.55;;;6.07;;
30896;SDS011;64229;52.246;21.054;2023-07-13T01:09:09;10.63;;;7.40;;
30896;SDS011;64229;52.246;21.054;2023-07-13T01:11:35;9.20;;;5.80;;
30896;SDS011;64229;52.246;21.054;2023-07-13T01:14:01;10.45;;;6.68;;
30896;SDS011;64229;52.246;21.054;2023-07-13T01:16:28;10.65;;;6.55;;
30896;SDS011;64229;52.246;21.054;2023-07-13T01:18:57;9.93;;;6.10;;
30896;SDS011;64229;52.246;21.054;2023-07-13T01:21:27;9.38;;;6.43;;
30896;SDS011;64229;52.246;21.054;2023-07-13T01:23:54;12.95;;;6.93;;
30896;SDS011;64229;52.246;21.054;2023-07-13T01:26:19;12.90;;;7.82;;
30896;SDS011;64229;52.246;21.054;2023-07-13T01:28:45;13.25;;;6.75;;
30896;SDS011;64229;52.246;21.054;2023-07-13T01:31:11;10.93;;;6.43;;
30896;SDS011;64229;52.246;21.054;2023-07-13T01:33:37;10.75;;;6.53;;
30896;SDS011;64229;52.246;21.054;2023-07-13T01:36:05;9.38;;;6.50;;
30896;SDS011;64229;52.246;21.054;2023-07-13T01:38:32;14.45;;;7.40;;
30896;SDS011;64229;52.246;21.054;2023-07-13T01:40:58;13.43;;;7.53;;
30896;SDS011;64229;52.246;21.054;2023-07-13T01:43:24;13.70;;;6.97;;
30896;SDS011;64229;52.246;21.054;2023-07-13T01:45:49;7.97;;;6.32;;
30896;SDS011;64229;52.246;21.054;2023-07-13T01:48:14;11.25;;;7.18;;
30896;SDS011;64229;52.246;21.054;2023-07-13T01:50:40;12.35;;;6.28;;
30896;SDS011;64229;52.246;21.054;2023-07-13T01:53:05;11.40;;;7.30;;
30896;SDS011;64229;52.246;21.054;2023-07-13T01:55:31;11.35;;;7.20;;
30896;SDS011;64229;52.246;21.054;2023-07-13T01:57:57;14.88;;;8.73;;
30896;SDS011;64229;52.246;21.054;2023-07-13T02:00:22;13.30;;;7.03;;
30896;SDS011;64229;52.246;21.054;2023-07-13T02:02:47;12.75;;;7.35;;
30896;SDS011;64229;52.246;21.054;2023-07-13T02:05:13;13.88;;;8.77;;
30896;SDS011;64229;52.246;21.054;2023-07-13T02:07:39;10.73;;;7.47;;
30896;SDS011;64229;52.246;21.054;2023-07-13T02:10:06;13.55;;;7.97;;
30896;SDS011;64229;52.246;21.054;2023-07-13T02:12:32;13.57;;;8.27;;
30896;SDS011;64229;52.246;21.054;2023-07-13T02:14:57;12.15;;;7.32;;
30896;SDS011;64229;52.246;21.054;2023-07-13T02:17:23;11.45;;;7.13;;
30896;SDS011;64229;52.246;21.054;2023-07-13T02:19:48;14.82;;;8.43;;
30896;SDS011;64229;52.246;21.054;2023-07-13T02:22:13;15.68;;;9.05;;
30896;SDS011;64229;52.246;21.054;2023-07-13T02:24:39;12.88;;;8.27;;
30896;SDS011;64229;52.246;21.054;2023-07-13T02:27:04;13.93;;;8.88;;
30896;SDS011;64229;52.246;21.054;2023-07-13T02:29:30;17.88;;;8.63;;
30896;SDS011;64229;52.246;21.054;2023-07-13T02:31:55;11.87;;;8.03;;
30896;SDS011;64229;52.246;21.054;2023-07-13T02:34:21;10.52;;;7.80;;
30896;SDS011;64229;52.246;21.054;2023-07-13T02:36:46;14.02;;;8.82;;
30896;SDS011;64229;52.246;21.054;2023-07-13T02:39:11;15.95;;;8.68;;
30896;SDS011;64229;52.246;21.054;2023-07-13T02:41:40;12.00;;;7.93;;
30896;SDS011;64229;52.246;21.054;2023-07-13T02:44:05;11.68;;;7.82;;
30896;SDS011;64229;52.246;21.054;2023-07-13T02:46:33;11.65;;;7.43;;
30896;SDS011;64229;52.246;21.054;2023-07-13T02:48:59;15.05;;;7.78;;
30896;SDS011;64229;52.246;21.054;2023-07-13T02:51:25;15.77;;;9.02;;
30896;SDS011;64229;52.246;21.054;2023-07-13T02:53:51;12.27;;;7.95;;
30896;SDS011;64229;52.246;21.054;2023-07-13T02:56:16;12.50;;;7.88;;
30896;SDS011;64229;52.246;21.054;2023-07-13T02:58:44;10.77;;;7.82;;
30896;SDS011;64229;52.246;21.054;2023-07-13T03:01:09;15.85;;;8.95;;
30896;SDS011;64229;52.246;21.054;2023-07-13T03:03:37;16.08;;;9.18;;
30896;SDS011;64229;52.246;21.054;2023-07-13T03:06:03;12.38;;;8.30;;
30896;SDS011;64229;52.246;21.054;2023-07-13T03:08:31;14.25;;;8.57;;
30896;SDS011;64229;52.246;21.054;2023-07-13T03:11:03;13.18;;;8.63;;
30896;SDS011;64229;52.246;21.054;2023-07-13T03:13:32;11.20;;;8.48;;
30896;SDS011;64229;52.246;21.054;2023-07-13T03:15:57;15.48;;;8.57;;
30896;SDS011;64229;52.246;21.054;2023-07-13T03:18:23;12.27;;;7.53;;
30896;SDS011;64229;52.246;21.054;2023-07-13T03:20:51;13.27;;;8.73;;
30896;SDS011;64229;52.246;21.054;2023-07-13T03:23:17;13.05;;;8.70;;
30896;SDS011;64229;52.246;21.054;2023-07-13T03:25:43;14.48;;;9.35;;
30896;SDS011;64229;52.246;21.054;2023-07-13T03:28:10;14.40;;;9.60;;
30896;SDS011;64229;52.246;21.054;2023-07-13T03:30:35;16.40;;;8.85;;
30896;SDS011;64229;52.246;21.054;2023-07-13T03:33:01;16.10;;;9.88;;
30896;SDS011;64229;52.246;21.054;2023-07-13T03:35:26;12.02;;;8.20;;
30896;SDS011;64229;52.246;21.054;2023-07-13T03:37:52;15.52;;;8.93;;
30896;SDS011;64229;52.246;21.054;2023-07-13T03:40:17;15.57;;;8.40;;
30896;SDS011;64229;52.246;21.054;2023-07-13T03:42:42;12.85;;;8.07;;
30896;SDS011;64229;52.246;21.054;2023-07-13T03:45:08;13.60;;;8.05;;
30896;SDS011;64229;52.246;21.054;2023-07-13T03:47:33;18.80;;;9.95;;
30896;SDS011;64229;52.246;21.054;2023-07-13T03:49:59;13.57;;;9.80;;
30896;SDS011;64229;52.246;21.054;2023-07-13T03:52:24;16.07;;;9.23;;
30896;SDS011;64229;52.246;21.054;2023-07-13T03:54:49;20.65;;;11.23;;
30896;SDS011;64229;52.246;21.054;2023-07-13T03:57:14;18.95;;;11.20;;
30896;SDS011;64229;52.246;21.054;2023-07-13T03:59:40;17.88;;;11.65;;
30896;SDS011;64229;52.246;21.054;2023-07-13T04:02:05;17.45;;;11.13;;
30896;SDS011;64229;52.246;21.054;2023-07-13T04:04:30;14.90;;;9.40;;
30896;SDS011;64229;52.246;21.054;2023-07-13T04:06:57;13.90;;;9.00;;
30896;SDS011;64229;52.246;21.054;2023-07-13T04:09:23;16.70;;;10.43;;
30896;SDS011;64229;52.246;21.054;2023-07-13T04:11:49;13.07;;;8.80;;
30896;SDS011;64229;52.246;21.054;2023-07-13T04:14:15;17.95;;;11.20;;
30896;SDS011;64229;52.246;21.054;2023-07-13T04:16:41;17.00;;;9.25;;
30896;SDS011;64229;52.246;21.054;2023-07-13T04:19:07;18.70;;;10.63;;
30896;SDS011;64229;52.246;21.054;2023-07-13T04:21:35;16.58;;;10.23;;
30896;SDS011;64229;52.246;21.054;2023-07-13T04:24:00;17.63;;;9.82;;
30896;SDS011;64229;52.246;21.054;2023-07-13T04:26:26;16.50;;;10.10;;
30896;SDS011;64229;52.246;21.054;2023-07-13T04:28:51;17.00;;;9.85;;
30896;SDS011;64229;52.246;21.054;2023-07-13T04:31:17;17.90;;;10.93;;
30896;SDS011;64229;52.246;21.054;2023-07-13T04:33:43;17.92;;;9.93;;
30896;SDS011;64229;52.246;21.054;2023-07-13T04:36:08;16.17;;;10.15;;
30896;SDS011;64229;52.246;21.054;2023-07-13T04:38:34;17.48;;;9.80;;
30896;SDS011;64229;52.246;21.054;2023-07-13T04:41:01;16.42;;;9.43;;
30896;SDS011;64229;52.246;21.054;2023-07-13T04:43:28;18.95;;;10.55;;
30896;SDS011;64229;52.246;21.054;2023-07-13T04:45:54;24.05;;;10.18;;
30896;SDS011;64229;52.246;21.054;2023-07-13T04:48:21;16.83;;;9.52;;
30896;SDS011;64229;52.246;21.054;2023-07-13T04:50:47;19.58;;;12.90;;
30896;SDS011;64229;52.246;21.054;2023-07-13T04:53:12;28.58;;;11.10;;
30896;SDS011;64229;52.246;21.054;2023-07-13T04:55:38;16.63;;;9.57;;
30896;SDS011;64229;52.246;21.054;2023-07-13T04:58:04;17.38;;;9.70;;
30896;SDS011;64229;52.246;21.054;2023-07-13T05:00:30;19.63;;;10.88;;
30896;SDS011;64229;52.246;21.054;2023-07-13T05:02:56;17.00;;;10.45;;
30896;SDS011;64229;52.246;21.054;2023-07-13T05:05:22;15.02;;;9.95;;
30896;SDS011;64229;52.246;21.054;2023-07-13T05:07:48;22.83;;;12.73;;
30896;SDS011;64229;52.246;21.054;2023-07-13T05:10:13;19.50;;;11.90;;
30896;SDS011;64229;52.246;21.054;2023-07-13T05:12:39;19.42;;;12.00;;
30896;SDS011;64229;52.246;21.054;2023-07-13T05:15:04;16.50;;;10.02;;
30896;SDS011;64229;52.246;21.054;2023-07-13T05:17:30;19.63;;;9.93;;
30896;SDS011;64229;52.246;21.054;2023-07-13T05:19:55;20.13;;;12.40;;
30896;SDS011;64229;52.246;21.054;2023-07-13T05:22:20;19.03;;;12.27;;
30896;SDS011;64229;52.246;21.054;2023-07-13T05:24:46;17.75;;;9.88;;
30896;SDS011;64229;52.246;21.054;2023-07-13T05:27:11;21.67;;;11.23;;
30896;SDS011;64229;52.246;21.054;2023-07-13T05:29:37;13.18;;;9.05;;
30896;SDS011;64229;52.246;21.054;2023-07-13T05:32:02;16.97;;;10.63;;
30896;SDS011;64229;52.246;21.054;2023-07-13T05:34:28;21.00;;;11.93;;
30896;SDS011;64229;52.246;21.054;2023-07-13T05:36:54;23.95;;;11.98;;
30896;SDS011;64229;52.246;21.054;2023-07-13T05:39:19;16.38;;;11.63;;
30896;SDS011;64229;52.246;21.054;2023-07-13T05:41:45;17.37;;;10.73;;
30896;SDS011;64229;52.246;21.054;2023-07-13T05:44:10;18.87;;;10.43;;
30896;SDS011;64229;52.246;21.054;2023-07-13T05:46:35;19.63;;;11.23;;
30896;SDS011;64229;52.246;21.054;2023-07-13T05:49:00;19.13;;;12.23;;
30896;SDS011;64229;52.246;21.054;2023-07-13T05:51:26;22.75;;;12.27;;
30896;SDS011;64229;52.246;21.054;2023-07-13T05:53:51;18.75;;;8.88;;
30896;SDS011;64229;52.246;21.054;2023-07-13T05:56:16;17.73;;;11.23;;
30896;SDS011;64229;52.246;21.054;2023-07-13T05:58:42;20.48;;;11.30;;
30896;SDS011;64229;52.246;21.054;2023-07-13T06:01:11;18.23;;;11.38;;
30896;SDS011;64229;52.246;21.054;2023-07-13T06:03:38;22.98;;;9.77;;
30896;SDS011;64229;52.246;21.054;2023-07-13T06:06:04;17.50;;;11.43;;
30896;SDS011;64229;52.246;21.054;2023-07-13T06:08:30;15.50;;;10.00;;
30896;SDS011;64229;52.246;21.054;2023-07-13T06:11:19;17.17;;;10.10;;
30896;SDS011;64229;52.246;21.054;2023-07-13T06:13:46;21.08;;;12.20;;
30896;SDS011;64229;52.246;21.054;2023-07-13T06:16:12;15.57;;;9.65;;
30896;SDS011;64229;52.246;21.054;2023-07-13T06:18:38;15.77;;;9.85;;
30896;SDS011;64229;52.246;21.054;2023-07-13T06:21:08;14.43;;;9.75;;
30896;SDS011;64229;52.246;21.054;2023-07-13T06:23:41;18.77;;;11.25;;
30896;SDS011;64229;52.246;21.054;2023-07-13T06:26:07;14.27;;;9.13;;
30896;SDS011;64229;52.246;21.054;2023-07-13T06:28:33;14.40;;;9.10;;
30896;SDS011;64229;52.246;21.054;2023-07-13T06:30:59;13.93;;;8.88;;
30896;SDS011;64229;52.246;21.054;2023-07-13T06:33:25;16.40;;;9.48;;
30896;SDS011;64229;52.246;21.054;2023-07-13T06:35:51;22.27;;;10.00;;
30896;SDS011;64229;52.246;21.054;2023-07-13T06:38:16;18.05;;;9.88;;
30896;SDS011;64229;52.246;21.054;2023-07-13T06:40:41;15.25;;;9.48;;
30896;SDS011;64229;52.246;21.054;2023-07-13T06:43:07;11.23;;;6.82;;
30896;SDS011;64229;52.246;21.054;2023-07-13T06:45:43;9.35;;;5.53;;
30896;SDS011;64229;52.246;21.054;2023-07-13T06:48:12;8.65;;;5.65;;
30896;SDS011;64229;52.246;21.054;2023-07-13T06:50:37;11.25;;;5.90;;
30896;SDS011;64229;52.246;21.054;2023-07-13T06:53:02;13.40;;;5.90;;
30896;SDS011;64229;52.246;21.054;2023-07-13T06:55:28;11.05;;;5.50;;
30896;SDS011;64229;52.246;21.054;2023-07-13T06:57:53;8.37;;;5.03;;
30896;SDS011;64229;52.246;21.054;2023-07-13T07:00:18;11.60;;;5.07;;
30896;SDS011;64229;52.246;21.054;2023-07-13T07:02:44;11.27;;;5.35;;
30896;SDS011;64229;52.246;21.054;2023-07-13T07:05:09;6.20;;;4.82;;
30896;SDS011;64229;52.246;21.054;2023-07-13T07:07:35;8.05;;;5.50;;
30896;SDS011;64229;52.246;21.054;2023-07-13T07:10:00;12.07;;;5.83;;
30896;SDS011;64229;52.246;21.054;2023-07-13T07:12:26;12.25;;;5.25;;
30896;SDS011;64229;52.246;21.054;2023-07-13T07:14:51;8.20;;;5.05;;
30896;SDS011;64229;52.246;21.054;2023-07-13T07:17:16;10.43;;;5.17;;
30896;SDS011;64229;52.246;21.054;2023-07-13T07:19:41;6.60;;;4.05;;
30896;SDS011;64229;52.246;21.054;2023-07-13T07:22:07;7.50;;;3.95;;
30896;SDS011;64229;52.246;21.054;2023-07-13T07:24:32;6.30;;;3.40;;
30896;SDS011;64229;52.246;21.054;2023-07-13T07:26:57;4.47;;;3.43;;
30896;SDS011;64229;52.246;21.054;2023-07-13T07:29:23;5.72;;;4.05;;
30896;SDS011;64229;52.246;21.054;2023-07-13T07:31:51;6.97;;;4.32;;
30896;SDS011;64229;52.246;21.054;2023-07-13T07:34:16;6.88;;;3.88;;
30896;SDS011;64229;52.246;21.054;2023-07-13T07:36:41;5.77;;;3.77;;
30896;SDS011;64229;52.246;21.054;2023-07-13T07:39:07;8.30;;;4.53;;
30896;SDS011;64229;52.246;21.054;2023-07-13T07:41:32;5.73;;;3.80;;
30896;SDS011;64229;52.246;21.054;2023-07-13T07:43:57;5.63;;;3.65;;
30896;SDS011;64229;52.246;21.054;2023-07-13T07:46:22;6.50;;;3.70;;
30896;SDS011;64229;52.246;21.054;2023-07-13T07:48:48;6.57;;;3.70;;
30896;SDS011;64229;52.246;21.054;2023-07-13T07:51:13;6.73;;;3.93;;
30896;SDS011;64229;52.246;21.054;2023-07-13T07:53:38;7.38;;;3.63;;
30896;SDS011;64229;52.246;21.054;2023-07-13T07:56:04;7.13;;;3.17;;
30896;SDS011;64229;52.246;21.054;2023-07-13T07:58:29;5.03;;;3.43;;
30896;SDS011;64229;52.246;21.054;2023-07-13T08:01:01;4.77;;;3.27;;
30896;SDS011;64229;52.246;21.054;2023-07-13T08:03:27;6.50;;;3.90;;
30896;SDS011;64229;52.246;21.054;2023-07-13T08:05:53;6.23;;;3.47;;
30896;SDS011;64229;52.246;21.054;2023-07-13T08:08:18;7.07;;;3.50;;
30896;SDS011;64229;52.246;21.054;2023-07-13T08:10:44;6.40;;;3.73;;
30896;SDS011;64229;52.246;21.054;2023-07-13T08:13:09;6.40;;;4.10;;
30896;SDS011;64229;52.246;21.054;2023-07-13T08:15:34;7.40;;;4.17;;
30896;SDS011;64229;52.246;21.054;2023-07-13T08:18:00;7.40;;;4.65;;
30896;SDS011;64229;52.246;21.054;2023-07-13T08:20:25;9.87;;;5.13;;
30896;SDS011;64229;52.246;21.054;2023-07-13T08:22:50;6.80;;;4.30;;
30896;SDS011;64229;52.246;21.054;2023-07-13T08:25:15;5.83;;;3.77;;
30896;SDS011;64229;52.246;21.054;2023-07-13T08:27:41;5.50;;;3.20;;
30896;SDS011;64229;52.246;21.054;2023-07-13T08:30:06;3.70;;;2.70;;
30896;SDS011;64229;52.246;21.054;2023-07-13T08:32:33;7.00;;;3.67;;
30896;SDS011;64229;52.246;21.054;2023-07-13T08:34:58;4.85;;;3.63;;
30896;SDS011;64229;52.246;21.054;2023-07-13T08:37:23;5.63;;;3.20;;
30896;SDS011;64229;52.246;21.054;2023-07-13T08:39:49;6.63;;;3.70;;
30896;SDS011;64229;52.246;21.054;2023-07-13T08:47:17;5.65;;;4.05;;
30896;SDS011;64229;52.246;21.054;2023-07-13T08:49:47;8.30;;;3.53;;
30896;SDS011;64229;52.246;21.054;2023-07-13T08:57:44;7.30;;;4.03;;
30896;SDS011;64229;52.246;21.054;2023-07-13T09:00:13;6.22;;;4.30;;
30896;SDS011;64229;52.246;21.054;2023-07-13T09:05:30;6.75;;;4.20;;
30896;SDS011;64229;52.246;21.054;2023-07-13T09:13:56;6.00;;;3.85;;
30896;SDS011;64229;52.246;21.054;2023-07-13T09:16:31;5.70;;;3.92;;
30896;SDS011;64229;52.246;21.054;2023-07-13T09:19:00;10.25;;;4.53;;
30896;SDS011;64229;52.246;21.054;2023-07-13T09:21:32;7.40;;;4.05;;
30896;SDS011;64229;52.246;21.054;2023-07-13T09:26:53;8.75;;;4.18;;
30896;SDS011;64229;52.246;21.054;2023-07-13T09:29:23;8.82;;;3.80;;
30896;SDS011;64229;52.246;21.054;2023-07-13T09:31:54;6.22;;;4.03;;
30896;SDS011;64229;52.246;21.054;2023-07-13T09:34:23;5.63;;;3.45;;
30896;SDS011;64229;52.246;21.054;2023-07-13T09:36:49;7.28;;;3.35;;
30896;SDS011;64229;52.246;21.054;2023-07-13T09:39:17;11.40;;;3.33;;
30896;SDS011;64229;52.246;21.054;2023-07-13T09:46:58;4.78;;;2.72;;
30896;SDS011;64229;52.246;21.054;2023-07-13T09:49:28;5.68;;;3.28;;
30896;SDS011;64229;52.246;21.054;2023-07-13T09:51:58;5.07;;;2.95;;
30896;SDS011;64229;52.246;21.054;2023-07-13T09:54:27;5.32;;;2.70;;
30896;SDS011;64229;52.246;21.054;2023-07-13T09:56:56;5.40;;;2.88;;
30896;SDS011;64229;52.246;21.054;2023-07-13T09:59:24;5.55;;;2.85;;
30896;SDS011;64229;52.246;21.054;2023-07-13T10:01:51;3.65;;;2.97;;
30896;SDS011;64229;52.246;21.054;2023-07-13T10:04:18;4.38;;;2.92;;
30896;SDS011;64229;52.246;21.054;2023-07-13T10:06:45;7.50;;;3.17;;
30896;SDS011;64229;52.246;21.054;2023-07-13T10:09:15;9.13;;;2.95;;
30896;SDS011;64229;52.246;21.054;2023-07-13T10:11:41;5.85;;;2.50;;
30896;SDS011;64229;52.246;21.054;2023-07-13T10:14:25;6.00;;;2.90;;
30896;SDS011;64229;52.246;21.054;2023-07-13T10:16:52;4.53;;;2.67;;
30896;SDS011;64229;52.246;21.054;2023-07-13T10:19:25;9.77;;;3.00;;
30896;SDS011;64229;52.246;21.054;2023-07-13T10:21:54;6.45;;;3.05;;
30896;SDS011;64229;52.246;21.054;2023-07-13T10:24:26;6.05;;;3.28;;
30896;SDS011;64229;52.246;21.054;2023-07-13T10:27:00;5.38;;;2.78;;
30896;SDS011;64229;52.246;21.054;2023-07-13T10:29:30;3.97;;;2.72;;
30896;SDS011;64229;52.246;21.054;2023-07-13T10:32:02;5.93;;;2.53;;
30896;SDS011;64229;52.246;21.054;2023-07-13T10:34:34;6.90;;;2.90;;
30896;SDS011;64229;52.246;21.054;2023-07-13T10:37:00;7.72;;;2.83;;
30896;SDS011;64229;52.246;21.054;2023-07-13T10:39:27;6.43;;;3.05;;
30896;SDS011;64229;52.246;21.054;2023-07-13T10:41:54;6.53;;;3.10;;
30896;SDS011;64229;52.246;21.054;2023-07-13T10:44:27;4.38;;;2.55;;
30896;SDS011;64229;52.246;21.054;2023-07-13T10:47:27;3.40;;;2.55;;
30896;SDS011;64229;52.246;21.054;2023-07-13T10:49:46;7.88;;;3.15;;
30896;SDS011;64229;52.246;21.054;2023-07-13T11:03:13;10.93;;;3.70;;
30896;SDS011;64229;52.246;21.054;2023-07-13T11:05:42;8.23;;;3.03;;
30896;SDS011;64229;52.246;21.054;2023-07-13T11:08:23;9.15;;;3.30;;
30896;SDS011;64229;52.246;21.054;2023-07-13T11:10:58;14.45;;;3.55;;
30896;SDS011;64229;52.246;21.054;2023-07-13T11:13:37;11.32;;;3.58;;
30896;SDS011;64229;52.246;21.054;2023-07-13T11:16:12;7.53;;;3.67;;
30896;SDS011;64229;52.246;21.054;2023-07-13T11:21:30;10.77;;;3.40;;
30896;SDS011;64229;52.246;21.054;2023-07-13T11:26:40;7.18;;;3.40;;
30896;SDS011;64229;52.246;21.054;2023-07-13T11:31:40;9.90;;;3.85;;
30896;SDS011;64229;52.246;21.054;2023-07-13T11:34:10;10.57;;;3.72;;
30896;SDS011;64229;52.246;21.054;2023-07-13T11:36:39;6.18;;;3.05;;
30896;SDS011;64229;52.246;21.054;2023-07-13T11:39:19;7.65;;;3.92;;
30896;SDS011;64229;52.246;21.054;2023-07-13T11:41:50;6.47;;;3.67;;
30896;SDS011;64229;52.246;21.054;2023-07-13T11:44:19;6.35;;;3.42;;
30896;SDS011;64229;52.246;21.054;2023-07-13T11:46:50;8.75;;;4.00;;
30896;SDS011;64229;52.246;21.054;2023-07-13T11:49:18;10.07;;;3.92;;
30896;SDS011;64229;52.246;21.054;2023-07-13T11:51:44;10.27;;;4.53;;
30896;SDS011;64229;52.246;21.054;2023-07-13T11:54:15;8.30;;;4.15;;
30896;SDS011;64229;52.246;21.054;2023-07-13T11:56:48;8.73;;;3.45;;
30896;SDS011;64229;52.246;21.054;2023-07-13T11:59:14;10.80;;;4.63;;
30896;SDS011;64229;52.246;21.054;2023-07-13T12:01:44;8.90;;;3.95;;
30896;SDS011;64229;52.246;21.054;2023-07-13T12:04:27;9.75;;;3.65;;
30896;SDS011;64229;52.246;21.054;2023-07-13T12:06:58;10.02;;;4.43;;
30896;SDS011;64229;52.246;21.054;2023-07-13T12:09:29;7.75;;;4.60;;
30896;SDS011;64229;52.246;21.054;2023-07-13T12:11:56;12.43;;;5.85;;
30896;SDS011;64229;52.246;21.054;2023-07-13T12:14:22;10.20;;;4.43;;
30896;SDS011;64229;52.246;21.054;2023-07-13T12:16:49;10.25;;;5.43;;
30896;SDS011;64229;52.246;21.054;2023-07-13T12:19:20;11.23;;;5.03;;
30896;SDS011;64229;52.246;21.054;2023-07-13T12:21:47;11.00;;;6.07;;
30896;SDS011;64229;52.246;21.054;2023-07-13T12:24:14;13.85;;;5.32;;
30896;SDS011;64229;52.246;21.054;2023-07-13T12:26:42;18.45;;;6.30;;
30896;SDS011;64229;52.246;21.054;2023-07-13T12:29:07;11.52;;;5.53;;
30896;SDS011;64229;52.246;21.054;2023-07-13T12:31:42;12.00;;;5.93;;
30896;SDS011;64229;52.246;21.054;2023-07-13T12:34:13;13.15;;;6.30;;
30896;SDS011;64229;52.246;21.054;2023-07-13T12:36:49;15.80;;;6.18;;
30896;SDS011;64229;52.246;21.054;2023-07-13T12:39:16;16.50;;;7.70;;
30896;SDS011;64229;52.246;21.054;2023-07-13T12:41:44;14.65;;;6.57;;
30896;SDS011;64229;52.246;21.054;2023-07-13T12:44:29;13.43;;;6.68;;
30896;SDS011;64229;52.246;21.054;2023-07-13T12:46:57;12.82;;;5.95;;
30896;SDS011;64229;52.246;21.054;2023-07-13T12:49:26;15.35;;;6.78;;
30896;SDS011;64229;52.246;21.054;2023-07-13T12:51:58;13.55;;;6.32;;
30896;SDS011;64229;52.246;21.054;2023-07-13T12:54:25;13.38;;;5.80;;
30896;SDS011;64229;52.246;21.054;2023-07-13T12:56:52;11.60;;;6.13;;
30896;SDS011;64229;52.246;21.054;2023-07-13T12:59:19;13.35;;;6.30;;
30896;SDS011;64229;52.246;21.054;2023-07-13T13:01:46;15.38;;;6.47;;
30896;SDS011;64229;52.246;21.054;2023-07-13T13:04:18;13.85;;;6.78;;
30896;SDS011;64229;52.246;21.054;2023-07-13T13:06:46;14.32;;;6.97;;
30896;SDS011;64229;52.246;21.054;2023-07-13T13:09:13;16.75;;;7.43;;
30896;SDS011;64229;52.246;21.054;2023-07-13T13:11:40;14.07;;;6.40;;
30896;SDS011;64229;52.246;21.054;2023-07-13T13:14:07;13.70;;;7.85;;
30896;SDS011;64229;52.246;21.054;2023-07-13T13:16:33;17.55;;;8.52;;
30896;SDS011;64229;52.246;21.054;2023-07-13T13:19:09;16.92;;;6.57;;
30896;SDS011;64229;52.246;21.054;2023-07-13T13:21:38;14.77;;;7.68;;
30896;SDS011;64229;52.246;21.054;2023-07-13T13:24:08;14.37;;;7.57;;
30896;SDS011;64229;52.246;21.054;2023-07-13T13:26:36;14.15;;;6.95;;
30896;SDS011;64229;52.246;21.054;2023-07-13T13:29:03;14.32;;;6.68;;
30896;SDS011;64229;52.246;21.054;2023-07-13T13:31:38;15.80;;;8.30;;
30896;SDS011;64229;52.246;21.054;2023-07-13T13:34:04;16.48;;;8.38;;
30896;SDS011;64229;52.246;21.054;2023-07-13T13:36:32;15.10;;;7.95;;
30896;SDS011;64229;52.246;21.054;2023-07-13T13:38:57;19.57;;;9.30;;
30896;SDS011;64229;52.246;21.054;2023-07-13T13:41:23;18.33;;;9.32;;
30896;SDS011;64229;52.246;21.054;2023-07-13T13:43:48;21.40;;;8.77;;
30896;SDS011;64229;52.246;21.054;2023-07-13T13:46:20;16.20;;;9.30;;
30896;SDS011;64229;52.246;21.054;2023-07-13T13:48:50;18.45;;;10.27;;
30896;SDS011;64229;52.246;21.054;2023-07-13T13:51:19;17.52;;;8.38;;
30896;SDS011;64229;52.246;21.054;2023-07-13T13:53:45;16.08;;;8.93;;
30896;SDS011;64229;52.246;21.054;2023-07-13T13:56:12;16.20;;;9.48;;
30896;SDS011;64229;52.246;21.054;2023-07-13T13:58:38;17.58;;;9.48;;
30896;SDS011;64229;52.246;21.054;2023-07-13T14:01:04;17.60;;;9.00;;
30896;SDS011;64229;52.246;21.054;2023-07-13T14:03:33;15.07;;;9.52;;
30896;SDS011;64229;52.246;21.054;2023-07-13T14:05:59;17.80;;;9.55;;
30896;SDS011;64229;52.246;21.054;2023-07-13T14:08:25;15.23;;;8.98;;
30896;SDS011;64229;52.246;21.054;2023-07-13T14:10:51;15.95;;;9.52;;
30896;SDS011;64229;52.246;21.054;2023-07-13T14:13:21;20.92;;;10.07;;
30896;SDS011;64229;52.246;21.054;2023-07-13T14:15:52;13.63;;;8.38;;
30896;SDS011;64229;52.246;21.054;2023-07-13T14:18:18;18.17;;;9.52;;
30896;SDS011;64229;52.246;21.054;2023-07-13T14:20:44;18.27;;;8.45;;
30896;SDS011;64229;52.246;21.054;2023-07-13T14:23:12;12.80;;;7.10;;
30896;SDS011;64229;52.246;21.054;2023-07-13T14:25:38;17.88;;;10.65;;
30896;SDS011;64229;52.246;21.054;2023-07-13T14:28:04;17.38;;;9.60;;
30896;SDS011;64229;52.246;21.054;2023-07-13T14:30:42;18.55;;;11.02;;
30896;SDS011;64229;52.246;21.054;2023-07-13T14:33:08;16.30;;;9.93;;
30896;SDS011;64229;52.246;21.054;2023-07-13T14:35:34;14.93;;;11.05;;
30896;SDS011;64229;52.246;21.054;2023-07-13T14:38:00;15.27;;;9.57;;
30896;SDS011;64229;52.246;21.054;2023-07-13T14:40:28;18.30;;;11.25;;
30896;SDS011;64229;52.246;21.054;2023-07-13T14:42:55;19.25;;;10.65;;
30896;SDS011;64229;52.246;21.054;2023-07-13T14:45:20;14.68;;;9.60;;
30896;SDS011;64229;52.246;21.054;2023-07-13T14:47:46;18.45;;;10.80;;
30896;SDS011;64229;52.246;21.054;2023-07-13T14:50:13;19.98;;;11.63;;
30896;SDS011;64229;52.246;21.054;2023-07-13T14:52:41;15.60;;;10.32;;
30896;SDS011;64229;52.246;21.054;2023-07-13T14:55:10;18.15;;;11.38;;
30896;SDS011;64229;52.246;21.054;2023-07-13T14:57:37;16.70;;;10.70;;
30896;SDS011;64229;52.246;21.054;2023-07-13T15:00:03;16.15;;;10.27;;
30896;SDS011;64229;52.246;21.054;2023-07-13T15:02:31;17.42;;;10.70;;
30896;SDS011;64229;52.246;21.054;2023-07-13T15:04:59;19.08;;;11.18;;
30896;SDS011;64229;52.246;21.054;2023-07-13T15:07:24;13.73;;;10.10;;
30896;SDS011;64229;52.246;21.054;2023-07-13T15:09:50;17.52;;;11.55;;